Mingus, TX (76463)

11:04 AM CDT on October 01, 2014 (GMT -0500)
Venable Hill | Change Station
CLOSE
Current Station
Personal Weather Station
Location: Mingus, TX
Elevation: 1106 ft
Nearby Weather Stations

Elev 1106 ft 32.46 °N, 98.37 °W | Updated 5 seconds ago

Clear
Clear
85.3 °F
Feels Like 89 °F
N
13.4
Wind Variable Wind from ESE
Gusts 16.4 mph

Today
High -- | Low -- °F
--% Chance of Precip.
Yesterday
High -- | Low -- °F
Precip. -- in
7:27 AM 7:18 PM
Waxing Crescent, 48% visible
Pressure 29.76 in
Visibility 10.0 miles
Clouds Clear
Heat Index 89 °F
Dew Point 68 °F
Humidity 56%
Rainfall 0.00 in
Snow Depth Not available.
UV 5 out of 12
Pollen 9.10 out of 12
Air Quality Not available.
Flu Activity Not available.
METAR KMWL 011553Z AUTO 17013KT 10SM CLR 29/19 A2980 RMK AO2 SLP077 T02890194

More Conditions Fewer Conditions

Pressure 29.76 in
Visibility 10.0 miles
Clouds Clear
Heat Index 89 °F
Dew Point 68 °F
Humidity 56%
Rainfall 0.00 in
Snow Depth Not available.
UV 5 out of 12
Pollen 9.10 out of 12
Air Quality Not available.
Flu Activity Not available.
METAR KMWL 011553Z AUTO 17013KT 10SM CLR 29/19 A2980 RMK AO2 SLP077 T02890194

More Conditions Fewer Conditions

10-Day Weather Forecast

Almanac

Astronomy

Oct. 01, 2014 Rise Set
Actual Time 7:27 AM CDT 7:18 PM CDT
Civil Twilight 7:03 AM CDT 7:42 PM CDT
Nautical Twilight 6:34 AM CDT 8:11 PM CDT
Astronomical Twilight 6:06 AM CDT 8:39 PM CDT
Moon 2:16 PM CDT 12:05 AM CDT
Length of Visible Light 12h 39m
Length of Day
11h 50m
Tomorrow will be 1m 59s shorter.
Waxing Crescent, 48% of the Moon is Illuminated
Today
Waxing Crescent
Oct 1
First Quarter
Oct 8
Full
Oct 15
Last Quarter
Oct 23
New

Today's Extremes

State Highs State Lows

Community

WunderPhotos

Upload Photos

1,757,968 photos uploaded!

WunderBlogs® & News

Nearby

Snow Depth

Station Depth Elevation
No new snow has been reported.

Earthquake Activity

City Distance Mag. Time & Date
No recent earthquake activity has been reported nearby.
Minimum magnitude displayed is 2.5.

Coastal Water Temperatures

Place Temperature
No Stations Reporting

Nearby Weather Stations